• Join FlightAware (Why Join?)
  • Login
  • US Flag 
03:57AM EDT


 

Airport Tracker/Info


-or-


 

Live Flight TrackerFlight Track Log ✈ EGF3681 ✈ 01-Jul-2013 ✈ KORD - KDAY

Flight Track Log - Related Links

Times and Time Zones

All times are in EDT time to prevent confusion due to time zone crossing. See the EGF3681 flight status page for this flight to view local times or setup timezone preferences in your user account.

Time Position Orientation Groundspeed Altitude Reporting Facility
EDT Latitude Longitude Course Direction KTS MPH feet Rate Location/Type
11:46PM 42.0333 -87.9500 95° East 194 223 2,600  Level Chicago TRACON
11:47PM 42.0833 -88.0000 323° Northwest 266 306 4,400 1,200 Climbing Chicago TRACON
11:48PM 41.9667 -87.5500 90° East  Level FlightAware Approximate
11:48PM 42.1000 -87.9333 71° East 241 277 5,000  Level Chicago TRACON
11:49PM 41.9568 -87.4342 98° East  Level FlightAware Approximate
11:49PM 42.1042 -87.8678 85° East 236 272 5,000  Level Chicago Center
11:50PM 41.9466 -87.3184 95° East  Level FlightAware Approximate
11:50PM 42.1022 -87.7792 92° East 236 272 5,100  Level Chicago Center
11:51PM 41.9383 -87.2023 95° East  Level FlightAware Approximate
11:51PM 42.0814 -87.6889 107° East 252 290 7,400  Level Chicago Center
11:52PM 42.0611 -87.5986 107° East 253 291 9,800 2,220 Climbing Chicago Center
11:53PM 42.0364 -87.4794 106° East 274 315 12,000 1,800 Climbing Chicago Center
11:54PM 42.0133 -87.3742 106° East 290 334 13,500 1,440 Climbing Chicago Center
11:55PM 41.9881 -87.2569 106° East 312 359 15,000 1,500 Climbing Chicago Center
11:56PM 41.9614 -87.1361 106° East 330 380 16,600 1,500 Climbing Chicago Center
11:57PM 41.9331 -87.0158 108° East 339 390 18,100 1,620 Climbing Chicago Center
11:58PM 41.8617 -86.9278 137° Southeast 348 400 19,900 1,860 Climbing Chicago Center
11:59PM 41.7964 -86.8361 134° Southeast 344 396 22,000 1,500 Climbing Chicago Center
12:00AM 41.7328 -86.7433 133° Southeast 341 392 23,000 480 Climbing Chicago Center
12:01AM 41.6594 -86.6372 133° Southeast 373 429 23,000  Level Chicago Center
12:02AM 41.5806 -86.5236 133° Southeast 407 468 23,000  Level Chicago Center
12:03AM 41.4983 -86.4086 134° Southeast 424 488 23,000  Level Chicago Center
12:04AM 41.4158 -86.2922 133° Southeast 432 497 23,000  Level Chicago Center
12:05AM 41.3353 -86.1775 133° Southeast 429 494 23,000  Level Chicago Center
12:06AM 41.2369 -86.0392 133° Southeast 432 497 23,000  Level Chicago Center
12:07AM 41.1567 -85.9264 133° Southeast 429 494 23,000 -300 Level Chicago Center
12:08AM 41.0817 -85.8203 133° Southeast 410 472 22,400 -1,260 Descending Chicago Center
12:09AM 41.0042 -85.7128 134° Southeast 406 467 20,500 -1,740 Descending Chicago Center
12:10AM 40.9267 -85.6047 133° Southeast 408 470 19,000 -1,380 Descending Chicago Center
12:11AM 40.8517 -85.5003 133° Southeast 400 460 17,700 -1,320 Descending Chicago Center
12:12AM 40.7756 -85.3958 134° Southeast 398 458 16,400 -1,380 Descending Chicago Center
12:13AM 40.7006 -85.2925 134° Southeast 394 453 15,000 -1,440 Descending Chicago Center
12:14AM 40.6250 -85.1883 134° Southeast 370 426 13,500 -1,440 Descending Chicago Center
12:15AM 40.5639 -85.1086 135° Southeast 376 433 12,300 -1,320 Descending Indianapolis Center
12:16AM 40.4936 -85.0119 134° Southeast 369 425 11,000 -720 Descending Indianapolis Center
12:17AM 40.4236 -84.9175 134° Southeast 364 419 10,900 -60 Descending Indianapolis Center
12:18AM 40.3508 -84.8200 134° Southeast 359 413 10,900 -480 Level Indianapolis Center
12:19AM 40.2767 -84.7547 146° Southeast 319 367 10,000 -1,320 Descending Indianapolis Center
12:20AM 40.2136 -84.6967 145° Southeast 288 331 8,300 -1,740 Descending Indianapolis Center
12:21AM 40.1536 -84.6419 145° Southeast 269 310 6,500 -1,800 Descending Indianapolis Center
12:22AM 40.0939 -84.5900 146° Southeast 259 298 4,700 -1,320 Descending Indianapolis Center
12:23AM 40.0361 -84.5425 148° Southeast 251 289 3,900 -420 Descending Indianapolis Center
12:24AM 39.9717 -84.5094 159° South 246 283 3,900 -180 Level Indianapolis Center
12:25AM 39.8958 -84.4689 158° South 248 285 3,600 -540 Descending Indianapolis Center
12:26AM 39.8297 -84.4353 159° South 251 289 2,900 -720 Descending Indianapolis Center